sensor_id;sensor_type;location;lat;lon;timestamp;P1;durP1;ratioP1;P2;durP2;ratioP2
11604;SDS011;5858;43.076;25.626;2023-10-08T00:02:15;10.53;;;5.33;;
11604;SDS011;5858;43.076;25.626;2023-10-08T00:04:47;6.90;;;4.40;;
11604;SDS011;5858;43.076;25.626;2023-10-08T00:07:16;9.20;;;5.47;;
11604;SDS011;5858;43.076;25.626;2023-10-08T00:09:46;6.40;;;4.53;;
11604;SDS011;5858;43.076;25.626;2023-10-08T00:12:16;10.27;;;5.73;;
11604;SDS011;5858;43.076;25.626;2023-10-08T00:14:44;8.43;;;5.17;;
11604;SDS011;5858;43.076;25.626;2023-10-08T00:17:14;7.97;;;5.03;;
11604;SDS011;5858;43.076;25.626;2023-10-08T00:19:42;10.33;;;4.80;;
11604;SDS011;5858;43.076;25.626;2023-10-08T00:22:09;8.50;;;5.13;;
11604;SDS011;5858;43.076;25.626;2023-10-08T00:24:38;8.37;;;5.07;;
11604;SDS011;5858;43.076;25.626;2023-10-08T00:27:07;13.33;;;5.40;;
11604;SDS011;5858;43.076;25.626;2023-10-08T00:29:34;7.87;;;4.90;;
11604;SDS011;5858;43.076;25.626;2023-10-08T00:32:06;9.70;;;5.00;;
11604;SDS011;5858;43.076;25.626;2023-10-08T00:34:40;8.30;;;5.33;;
11604;SDS011;5858;43.076;25.626;2023-10-08T00:37:08;6.27;;;4.70;;
11604;SDS011;5858;43.076;25.626;2023-10-08T00:39:36;9.53;;;5.13;;
11604;SDS011;5858;43.076;25.626;2023-10-08T00:42:05;7.60;;;4.60;;
11604;SDS011;5858;43.076;25.626;2023-10-08T00:44:32;7.40;;;4.93;;
11604;SDS011;5858;43.076;25.626;2023-10-08T00:47:09;8.00;;;4.63;;
11604;SDS011;5858;43.076;25.626;2023-10-08T00:49:37;9.50;;;4.57;;
11604;SDS011;5858;43.076;25.626;2023-10-08T00:52:29;7.87;;;4.83;;
11604;SDS011;5858;43.076;25.626;2023-10-08T00:55:04;7.07;;;4.60;;
11604;SDS011;5858;43.076;25.626;2023-10-08T00:57:46;8.70;;;5.50;;
11604;SDS011;5858;43.076;25.626;2023-10-08T01:00:17;5.77;;;4.63;;
11604;SDS011;5858;43.076;25.626;2023-10-08T01:02:49;8.07;;;5.10;;
11604;SDS011;5858;43.076;25.626;2023-10-08T01:05:25;7.10;;;4.80;;
11604;SDS011;5858;43.076;25.626;2023-10-08T01:08:07;7.23;;;4.77;;
11604;SDS011;5858;43.076;25.626;2023-10-08T01:10:37;6.93;;;4.77;;
11604;SDS011;5858;43.076;25.626;2023-10-08T01:13:05;9.67;;;5.63;;
11604;SDS011;5858;43.076;25.626;2023-10-08T01:15:36;6.70;;;4.33;;
11604;SDS011;5858;43.076;25.626;2023-10-08T01:18:08;7.47;;;4.97;;
11604;SDS011;5858;43.076;25.626;2023-10-08T01:20:40;5.63;;;4.50;;
11604;SDS011;5858;43.076;25.626;2023-10-08T01:23:19;6.27;;;4.63;;
11604;SDS011;5858;43.076;25.626;2023-10-08T01:25:48;7.07;;;4.73;;
11604;SDS011;5858;43.076;25.626;2023-10-08T01:28:17;7.50;;;5.10;;
11604;SDS011;5858;43.076;25.626;2023-10-08T01:30:51;7.53;;;4.90;;
11604;SDS011;5858;43.076;25.626;2023-10-08T01:33:20;6.73;;;4.73;;
11604;SDS011;5858;43.076;25.626;2023-10-08T01:35:47;9.37;;;4.90;;
11604;SDS011;5858;43.076;25.626;2023-10-08T01:38:15;6.43;;;5.00;;
11604;SDS011;5858;43.076;25.626;2023-10-08T01:40:50;6.57;;;4.90;;
11604;SDS011;5858;43.076;25.626;2023-10-08T01:43:17;9.00;;;4.60;;
11604;SDS011;5858;43.076;25.626;2023-10-08T01:45:45;8.70;;;5.07;;
11604;SDS011;5858;43.076;25.626;2023-10-08T01:48:14;10.60;;;5.40;;
11604;SDS011;5858;43.076;25.626;2023-10-08T01:50:45;7.53;;;4.67;;
11604;SDS011;5858;43.076;25.626;2023-10-08T01:53:12;8.03;;;5.27;;
11604;SDS011;5858;43.076;25.626;2023-10-08T01:55:41;8.57;;;4.90;;
11604;SDS011;5858;43.076;25.626;2023-10-08T01:58:18;7.20;;;5.53;;
11604;SDS011;5858;43.076;25.626;2023-10-08T02:00:45;9.40;;;5.20;;
11604;SDS011;5858;43.076;25.626;2023-10-08T02:03:13;8.23;;;4.97;;
11604;SDS011;5858;43.076;25.626;2023-10-08T02:05:41;7.70;;;4.43;;
11604;SDS011;5858;43.076;25.626;2023-10-08T02:08:09;9.30;;;5.23;;
11604;SDS011;5858;43.076;25.626;2023-10-08T02:10:37;9.33;;;4.63;;
11604;SDS011;5858;43.076;25.626;2023-10-08T02:13:05;8.23;;;5.20;;
11604;SDS011;5858;43.076;25.626;2023-10-08T02:15:35;6.93;;;5.30;;
11604;SDS011;5858;43.076;25.626;2023-10-08T02:18:04;6.17;;;4.50;;
11604;SDS011;5858;43.076;25.626;2023-10-08T02:20:31;7.07;;;4.57;;
11604;SDS011;5858;43.076;25.626;2023-10-08T02:22:59;5.80;;;4.70;;
11604;SDS011;5858;43.076;25.626;2023-10-08T02:25:26;6.60;;;4.97;;
11604;SDS011;5858;43.076;25.626;2023-10-08T02:27:54;7.37;;;4.40;;
11604;SDS011;5858;43.076;25.626;2023-10-08T02:30:21;9.00;;;4.90;;
11604;SDS011;5858;43.076;25.626;2023-10-08T02:32:49;7.50;;;4.90;;
11604;SDS011;5858;43.076;25.626;2023-10-08T02:35:17;7.00;;;5.37;;
11604;SDS011;5858;43.076;25.626;2023-10-08T02:37:44;6.10;;;4.87;;
11604;SDS011;5858;43.076;25.626;2023-10-08T02:40:11;8.93;;;5.10;;
11604;SDS011;5858;43.076;25.626;2023-10-08T02:42:44;7.03;;;4.80;;
11604;SDS011;5858;43.076;25.626;2023-10-08T02:45:12;9.40;;;5.20;;
11604;SDS011;5858;43.076;25.626;2023-10-08T02:47:41;7.43;;;4.90;;
11604;SDS011;5858;43.076;25.626;2023-10-08T02:50:11;8.90;;;5.10;;
11604;SDS011;5858;43.076;25.626;2023-10-08T02:52:42;8.90;;;6.57;;
11604;SDS011;5858;43.076;25.626;2023-10-08T02:55:10;7.27;;;6.23;;
11604;SDS011;5858;43.076;25.626;2023-10-08T02:57:48;6.40;;;5.17;;
11604;SDS011;5858;43.076;25.626;2023-10-08T03:00:17;6.73;;;4.80;;
11604;SDS011;5858;43.076;25.626;2023-10-08T03:02:45;7.67;;;5.10;;
11604;SDS011;5858;43.076;25.626;2023-10-08T03:05:14;9.20;;;5.20;;
11604;SDS011;5858;43.076;25.626;2023-10-08T03:07:43;7.93;;;5.10;;
11604;SDS011;5858;43.076;25.626;2023-10-08T03:10:10;6.30;;;4.77;;
11604;SDS011;5858;43.076;25.626;2023-10-08T03:12:44;8.13;;;4.40;;
11604;SDS011;5858;43.076;25.626;2023-10-08T03:15:12;7.90;;;5.13;;
11604;SDS011;5858;43.076;25.626;2023-10-08T03:17:53;7.70;;;4.80;;
11604;SDS011;5858;43.076;25.626;2023-10-08T03:20:24;8.17;;;4.70;;
11604;SDS011;5858;43.076;25.626;2023-10-08T03:23:02;8.13;;;4.73;;
11604;SDS011;5858;43.076;25.626;2023-10-08T03:25:32;6.07;;;4.50;;
11604;SDS011;5858;43.076;25.626;2023-10-08T03:28:06;8.70;;;5.00;;
11604;SDS011;5858;43.076;25.626;2023-10-08T03:30:37;7.70;;;4.90;;
11604;SDS011;5858;43.076;25.626;2023-10-08T03:33:13;7.93;;;5.40;;
11604;SDS011;5858;43.076;25.626;2023-10-08T03:35:48;8.07;;;4.77;;
11604;SDS011;5858;43.076;25.626;2023-10-08T03:38:18;7.83;;;5.07;;
11604;SDS011;5858;43.076;25.626;2023-10-08T03:40:53;9.07;;;5.10;;
11604;SDS011;5858;43.076;25.626;2023-10-08T03:43:22;13.90;;;5.93;;
11604;SDS011;5858;43.076;25.626;2023-10-08T03:45:58;6.97;;;4.37;;
11604;SDS011;5858;43.076;25.626;2023-10-08T03:48:31;9.43;;;5.40;;
11604;SDS011;5858;43.076;25.626;2023-10-08T03:51:04;11.93;;;5.00;;
11604;SDS011;5858;43.076;25.626;2023-10-08T03:53:36;7.03;;;4.60;;
11604;SDS011;5858;43.076;25.626;2023-10-08T03:56:17;7.97;;;5.03;;
11604;SDS011;5858;43.076;25.626;2023-10-08T03:58:44;8.40;;;5.23;;
11604;SDS011;5858;43.076;25.626;2023-10-08T04:01:12;7.93;;;5.40;;
11604;SDS011;5858;43.076;25.626;2023-10-08T04:03:44;6.47;;;4.93;;
11604;SDS011;5858;43.076;25.626;2023-10-08T04:06:26;7.10;;;4.83;;
11604;SDS011;5858;43.076;25.626;2023-10-08T04:09:03;9.07;;;5.40;;
11604;SDS011;5858;43.076;25.626;2023-10-08T04:11:49;6.20;;;4.47;;
11604;SDS011;5858;43.076;25.626;2023-10-08T04:14:17;9.90;;;5.33;;
11604;SDS011;5858;43.076;25.626;2023-10-08T04:16:44;7.77;;;4.97;;
11604;SDS011;5858;43.076;25.626;2023-10-08T04:19:16;7.30;;;5.07;;
11604;SDS011;5858;43.076;25.626;2023-10-08T04:21:45;8.70;;;5.73;;
11604;SDS011;5858;43.076;25.626;2023-10-08T04:24:19;7.27;;;5.47;;
11604;SDS011;5858;43.076;25.626;2023-10-08T04:26:53;9.00;;;5.27;;
11604;SDS011;5858;43.076;25.626;2023-10-08T04:29:23;7.53;;;4.87;;
11604;SDS011;5858;43.076;25.626;2023-10-08T04:31:51;7.00;;;4.63;;
11604;SDS011;5858;43.076;25.626;2023-10-08T04:34:27;9.57;;;4.70;;
11604;SDS011;5858;43.076;25.626;2023-10-08T04:36:56;8.67;;;5.23;;
11604;SDS011;5858;43.076;25.626;2023-10-08T04:39:26;16.57;;;10.87;;
11604;SDS011;5858;43.076;25.626;2023-10-08T04:41:57;13.97;;;7.57;;
11604;SDS011;5858;43.076;25.626;2023-10-08T04:44:31;20.83;;;10.87;;
11604;SDS011;5858;43.076;25.626;2023-10-08T04:46:58;28.27;;;14.33;;
11604;SDS011;5858;43.076;25.626;2023-10-08T04:49:31;12.70;;;5.60;;
11604;SDS011;5858;43.076;25.626;2023-10-08T04:52:01;14.47;;;7.60;;
11604;SDS011;5858;43.076;25.626;2023-10-08T04:54:39;8.77;;;5.83;;
11604;SDS011;5858;43.076;25.626;2023-10-08T04:57:11;9.50;;;5.83;;
11604;SDS011;5858;43.076;25.626;2023-10-08T04:59:41;11.57;;;6.13;;
11604;SDS011;5858;43.076;25.626;2023-10-08T05:02:08;8.63;;;5.50;;
11604;SDS011;5858;43.076;25.626;2023-10-08T05:04:59;8.37;;;5.33;;
11604;SDS011;5858;43.076;25.626;2023-10-08T05:07:50;8.40;;;5.37;;
11604;SDS011;5858;43.076;25.626;2023-10-08T05:10:43;7.80;;;4.67;;
11604;SDS011;5858;43.076;25.626;2023-10-08T05:13:40;8.70;;;5.20;;
11604;SDS011;5858;43.076;25.626;2023-10-08T05:16:20;8.73;;;5.10;;
11604;SDS011;5858;43.076;25.626;2023-10-08T05:19:02;9.60;;;4.50;;
11604;SDS011;5858;43.076;25.626;2023-10-08T05:21:59;9.57;;;5.00;;
11604;SDS011;5858;43.076;25.626;2023-10-08T05:24:45;9.17;;;4.50;;
11604;SDS011;5858;43.076;25.626;2023-10-08T05:27:32;10.40;;;5.30;;
11604;SDS011;5858;43.076;25.626;2023-10-08T05:30:20;7.37;;;4.40;;
11604;SDS011;5858;43.076;25.626;2023-10-08T05:32:53;8.67;;;4.70;;
11604;SDS011;5858;43.076;25.626;2023-10-08T05:35:38;8.20;;;4.20;;
11604;SDS011;5858;43.076;25.626;2023-10-08T05:38:20;7.47;;;3.67;;
11604;SDS011;5858;43.076;25.626;2023-10-08T05:40:50;7.83;;;4.10;;
11604;SDS011;5858;43.076;25.626;2023-10-08T05:43:38;7.67;;;4.37;;
11604;SDS011;5858;43.076;25.626;2023-10-08T05:46:36;14.87;;;6.17;;
11604;SDS011;5858;43.076;25.626;2023-10-08T05:49:16;9.60;;;5.87;;
11604;SDS011;5858;43.076;25.626;2023-10-08T05:52:03;13.90;;;7.07;;
11604;SDS011;5858;43.076;25.626;2023-10-08T05:54:56;11.40;;;6.43;;
11604;SDS011;5858;43.076;25.626;2023-10-08T05:57:41;12.45;;;6.25;;
11604;SDS011;5858;43.076;25.626;2023-10-08T06:00:17;9.68;;;6.45;;
11604;SDS011;5858;43.076;25.626;2023-10-08T06:03:10;11.77;;;6.80;;
11604;SDS011;5858;43.076;25.626;2023-10-08T06:05:57;14.50;;;8.48;;
11604;SDS011;5858;43.076;25.626;2023-10-08T06:08:47;17.45;;;8.13;;
11604;SDS011;5858;43.076;25.626;2023-10-08T06:11:47;20.95;;;8.63;;
11604;SDS011;5858;43.076;25.626;2023-10-08T06:14:36;17.58;;;8.75;;
11604;SDS011;5858;43.076;25.626;2023-10-08T06:17:18;12.98;;;8.00;;
11604;SDS011;5858;43.076;25.626;2023-10-08T06:20:20;14.07;;;8.15;;
11604;SDS011;5858;43.076;25.626;2023-10-08T06:22:50;12.38;;;7.72;;
11604;SDS011;5858;43.076;25.626;2023-10-08T06:25:24;12.82;;;7.07;;
11604;SDS011;5858;43.076;25.626;2023-10-08T06:27:53;17.05;;;8.40;;
11604;SDS011;5858;43.076;25.626;2023-10-08T06:30:25;15.40;;;7.63;;
11604;SDS011;5858;43.076;25.626;2023-10-08T06:32:55;14.80;;;7.28;;
11604;SDS011;5858;43.076;25.626;2023-10-08T06:35:22;15.25;;;6.80;;
11604;SDS011;5858;43.076;25.626;2023-10-08T06:37:53;10.25;;;6.18;;
11604;SDS011;5858;43.076;25.626;2023-10-08T06:40:25;8.73;;;5.22;;
11604;SDS011;5858;43.076;25.626;2023-10-08T06:43:07;6.15;;;3.92;;
11604;SDS011;5858;43.076;25.626;2023-10-08T06:45:48;5.88;;;4.10;;
11604;SDS011;5858;43.076;25.626;2023-10-08T06:48:17;7.15;;;4.32;;
11604;SDS011;5858;43.076;25.626;2023-10-08T06:50:46;7.22;;;3.65;;
11604;SDS011;5858;43.076;25.626;2023-10-08T06:53:14;7.20;;;3.97;;
11604;SDS011;5858;43.076;25.626;2023-10-08T06:55:43;5.47;;;3.45;;
11604;SDS011;5858;43.076;25.626;2023-10-08T06:58:14;6.55;;;3.50;;
11604;SDS011;5858;43.076;25.626;2023-10-08T07:00:43;6.70;;;3.33;;
11604;SDS011;5858;43.076;25.626;2023-10-08T07:03:28;6.35;;;3.60;;
11604;SDS011;5858;43.076;25.626;2023-10-08T07:05:56;8.55;;;3.58;;
11604;SDS011;5858;43.076;25.626;2023-10-08T07:08:25;9.38;;;4.35;;
11604;SDS011;5858;43.076;25.626;2023-10-08T07:10:54;4.75;;;3.33;;
11604;SDS011;5858;43.076;25.626;2023-10-08T07:13:23;4.90;;;3.28;;
11604;SDS011;5858;43.076;25.626;2023-10-08T07:15:50;6.28;;;3.38;;
11604;SDS011;5858;43.076;25.626;2023-10-08T07:18:18;6.13;;;3.60;;
11604;SDS011;5858;43.076;25.626;2023-10-08T07:20:51;6.25;;;3.40;;
11604;SDS011;5858;43.076;25.626;2023-10-08T07:23:21;6.53;;;2.95;;
11604;SDS011;5858;43.076;25.626;2023-10-08T07:25:52;12.30;;;3.50;;
11604;SDS011;5858;43.076;25.626;2023-10-08T07:28:23;8.07;;;3.63;;
11604;SDS011;5858;43.076;25.626;2023-10-08T07:30:52;5.60;;;3.30;;
11604;SDS011;5858;43.076;25.626;2023-10-08T07:33:20;6.88;;;3.25;;
11604;SDS011;5858;43.076;25.626;2023-10-08T07:35:51;6.78;;;2.78;;
11604;SDS011;5858;43.076;25.626;2023-10-08T07:38:22;5.82;;;3.08;;
11604;SDS011;5858;43.076;25.626;2023-10-08T07:40:55;7.32;;;2.80;;
11604;SDS011;5858;43.076;25.626;2023-10-08T07:43:22;4.32;;;2.97;;
11604;SDS011;5858;43.076;25.626;2023-10-08T07:45:49;10.07;;;3.22;;
11604;SDS011;5858;43.076;25.626;2023-10-08T07:48:19;8.18;;;3.15;;
11604;SDS011;5858;43.076;25.626;2023-10-08T07:50:48;7.38;;;3.67;;
11604;SDS011;5858;43.076;25.626;2023-10-08T07:53:17;7.68;;;3.40;;
11604;SDS011;5858;43.076;25.626;2023-10-08T07:55:47;6.75;;;2.65;;
11604;SDS011;5858;43.076;25.626;2023-10-08T07:58:15;5.10;;;3.47;;
11604;SDS011;5858;43.076;25.626;2023-10-08T08:00:42;10.80;;;2.75;;
11604;SDS011;5858;43.076;25.626;2023-10-08T08:03:19;6.72;;;3.50;;
11604;SDS011;5858;43.076;25.626;2023-10-08T08:05:46;9.32;;;3.55;;
11604;SDS011;5858;43.076;25.626;2023-10-08T08:08:19;7.10;;;3.00;;
11604;SDS011;5858;43.076;25.626;2023-10-08T08:10:48;7.38;;;3.03;;
11604;SDS011;5858;43.076;25.626;2023-10-08T08:13:23;6.90;;;3.40;;
11604;SDS011;5858;43.076;25.626;2023-10-08T08:15:53;4.43;;;2.85;;
11604;SDS011;5858;43.076;25.626;2023-10-08T08:18:23;3.78;;;2.65;;
11604;SDS011;5858;43.076;25.626;2023-10-08T08:20:58;12.65;;;2.78;;
11604;SDS011;5858;43.076;25.626;2023-10-08T08:23:29;10.00;;;3.38;;
11604;SDS011;5858;43.076;25.626;2023-10-08T08:25:57;7.97;;;3.33;;
11604;SDS011;5858;43.076;25.626;2023-10-08T08:28:36;5.35;;;2.92;;
11604;SDS011;5858;43.076;25.626;2023-10-08T08:31:04;8.77;;;3.15;;
11604;SDS011;5858;43.076;25.626;2023-10-08T08:33:38;8.40;;;2.97;;
11604;SDS011;5858;43.076;25.626;2023-10-08T08:36:18;10.98;;;3.50;;
11604;SDS011;5858;43.076;25.626;2023-10-08T08:38:48;12.95;;;3.35;;
11604;SDS011;5858;43.076;25.626;2023-10-08T08:41:15;8.98;;;2.95;;
11604;SDS011;5858;43.076;25.626;2023-10-08T08:43:44;11.32;;;2.63;;
11604;SDS011;5858;43.076;25.626;2023-10-08T08:46:14;8.02;;;3.50;;
11604;SDS011;5858;43.076;25.626;2023-10-08T08:48:41;7.72;;;3.08;;
11604;SDS011;5858;43.076;25.626;2023-10-08T08:51:10;8.65;;;2.88;;
11604;SDS011;5858;43.076;25.626;2023-10-08T08:53:38;5.78;;;2.67;;
11604;SDS011;5858;43.076;25.626;2023-10-08T08:56:08;6.90;;;2.95;;
11604;SDS011;5858;43.076;25.626;2023-10-08T08:58:36;9.70;;;3.53;;
11604;SDS011;5858;43.076;25.626;2023-10-08T09:01:05;12.07;;;3.30;;
11604;SDS011;5858;43.076;25.626;2023-10-08T09:03:37;5.68;;;2.95;;
11604;SDS011;5858;43.076;25.626;2023-10-08T09:06:04;13.18;;;3.00;;
11604;SDS011;5858;43.076;25.626;2023-10-08T09:08:35;9.98;;;3.00;;
11604;SDS011;5858;43.076;25.626;2023-10-08T09:11:02;12.60;;;3.78;;
11604;SDS011;5858;43.076;25.626;2023-10-08T09:13:31;7.45;;;2.58;;
11604;SDS011;5858;43.076;25.626;2023-10-08T09:16:06;10.32;;;3.58;;
11604;SDS011;5858;43.076;25.626;2023-10-08T09:18:34;9.45;;;4.13;;
11604;SDS011;5858;43.076;25.626;2023-10-08T09:21:08;16.25;;;3.50;;
11604;SDS011;5858;43.076;25.626;2023-10-08T09:23:40;9.07;;;3.20;;
11604;SDS011;5858;43.076;25.626;2023-10-08T09:26:12;5.85;;;2.40;;
11604;SDS011;5858;43.076;25.626;2023-10-08T09:28:44;10.55;;;3.20;;
11604;SDS011;5858;43.076;25.626;2023-10-08T09:31:13;12.13;;;3.60;;
11604;SDS011;5858;43.076;25.626;2023-10-08T09:33:42;16.17;;;5.55;;
11604;SDS011;5858;43.076;25.626;2023-10-08T09:36:10;13.25;;;5.57;;
11604;SDS011;5858;43.076;25.626;2023-10-08T09:38:41;22.50;;;8.40;;
11604;SDS011;5858;43.076;25.626;2023-10-08T09:41:10;35.40;;;14.77;;
11604;SDS011;5858;43.076;25.626;2023-10-08T09:43:38;9.20;;;3.38;;
11604;SDS011;5858;43.076;25.626;2023-10-08T09:46:13;14.00;;;4.68;;
11604;SDS011;5858;43.076;25.626;2023-10-08T09:48:44;8.38;;;3.63;;
11604;SDS011;5858;43.076;25.626;2023-10-08T09:51:18;9.07;;;3.30;;
11604;SDS011;5858;43.076;25.626;2023-10-08T09:53:49;9.02;;;3.00;;
11604;SDS011;5858;43.076;25.626;2023-10-08T09:56:19;8.60;;;3.42;;
11604;SDS011;5858;43.076;25.626;2023-10-08T09:58:48;7.85;;;3.50;;
11604;SDS011;5858;43.076;25.626;2023-10-08T10:01:17;7.45;;;3.97;;
11604;SDS011;5858;43.076;25.626;2023-10-08T10:03:47;10.32;;;3.45;;
11604;SDS011;5858;43.076;25.626;2023-10-08T10:06:15;7.35;;;3.45;;
11604;SDS011;5858;43.076;25.626;2023-10-08T10:08:44;8.23;;;3.20;;
11604;SDS011;5858;43.076;25.626;2023-10-08T10:11:12;15.57;;;4.28;;
11604;SDS011;5858;43.076;25.626;2023-10-08T10:13:41;8.20;;;3.38;;
11604;SDS011;5858;43.076;25.626;2023-10-08T10:16:11;7.43;;;2.95;;
11604;SDS011;5858;43.076;25.626;2023-10-08T10:18:39;12.75;;;3.45;;
11604;SDS011;5858;43.076;25.626;2023-10-08T10:21:25;12.48;;;4.22;;
11604;SDS011;5858;43.076;25.626;2023-10-08T10:23:58;6.90;;;3.58;;
11604;SDS011;5858;43.076;25.626;2023-10-08T10:26:26;9.88;;;3.75;;
11604;SDS011;5858;43.076;25.626;2023-10-08T10:31:46;12.25;;;3.90;;
11604;SDS011;5858;43.076;25.626;2023-10-08T10:34:16;10.43;;;3.40;;
11604;SDS011;5858;43.076;25.626;2023-10-08T10:36:45;10.18;;;3.03;;
11604;SDS011;5858;43.076;25.626;2023-10-08T10:39:15;11.02;;;3.10;;
11604;SDS011;5858;43.076;25.626;2023-10-08T10:41:51;12.48;;;3.13;;
11604;SDS011;5858;43.076;25.626;2023-10-08T10:44:22;6.03;;;3.30;;
11604;SDS011;5858;43.076;25.626;2023-10-08T10:46:51;7.18;;;3.40;;
11604;SDS011;5858;43.076;25.626;2023-10-08T10:49:38;7.97;;;3.30;;
11604;SDS011;5858;43.076;25.626;2023-10-08T10:52:13;8.38;;;3.10;;
11604;SDS011;5858;43.076;25.626;2023-10-08T10:54:56;9.15;;;3.90;;
11604;SDS011;5858;43.076;25.626;2023-10-08T10:57:43;9.27;;;3.67;;
11604;SDS011;5858;43.076;25.626;2023-10-08T11:00:19;9.07;;;3.50;;
11604;SDS011;5858;43.076;25.626;2023-10-08T11:03:14;11.18;;;3.60;;
11604;SDS011;5858;43.076;25.626;2023-10-08T11:05:49;16.58;;;3.70;;
11604;SDS011;5858;43.076;25.626;2023-10-08T11:08:20;9.15;;;3.10;;
11604;SDS011;5858;43.076;25.626;2023-10-08T11:10:49;14.00;;;3.85;;
11604;SDS011;5858;43.076;25.626;2023-10-08T11:13:18;6.65;;;3.20;;
11604;SDS011;5858;43.076;25.626;2023-10-08T11:15:47;7.95;;;3.17;;
11604;SDS011;5858;43.076;25.626;2023-10-08T11:18:19;18.08;;;4.50;;
11604;SDS011;5858;43.076;25.626;2023-10-08T11:20:48;10.48;;;3.08;;
11604;SDS011;5858;43.076;25.626;2023-10-08T11:23:32;10.80;;;3.90;;
11604;SDS011;5858;43.076;25.626;2023-10-08T11:26:00;15.73;;;4.15;;
11604;SDS011;5858;43.076;25.626;2023-10-08T11:28:29;8.35;;;3.38;;
11604;SDS011;5858;43.076;25.626;2023-10-08T11:31:02;12.27;;;4.20;;
11604;SDS011;5858;43.076;25.626;2023-10-08T11:33:36;13.07;;;3.72;;
11604;SDS011;5858;43.076;25.626;2023-10-08T11:36:04;9.88;;;3.17;;
11604;SDS011;5858;43.076;25.626;2023-10-08T11:38:43;7.35;;;3.20;;
11604;SDS011;5858;43.076;25.626;2023-10-08T11:41:13;10.38;;;3.75;;
11604;SDS011;5858;43.076;25.626;2023-10-08T11:43:50;10.18;;;4.03;;
11604;SDS011;5858;43.076;25.626;2023-10-08T11:46:21;11.07;;;3.78;;
11604;SDS011;5858;43.076;25.626;2023-10-08T11:48:52;12.90;;;3.33;;
11604;SDS011;5858;43.076;25.626;2023-10-08T11:51:22;13.75;;;3.40;;
11604;SDS011;5858;43.076;25.626;2023-10-08T11:53:49;16.13;;;4.40;;
11604;SDS011;5858;43.076;25.626;2023-10-08T11:56:16;8.77;;;3.40;;
11604;SDS011;5858;43.076;25.626;2023-10-08T11:58:48;15.88;;;4.70;;
11604;SDS011;5858;43.076;25.626;2023-10-08T12:01:16;24.70;;;3.92;;
11604;SDS011;5858;43.076;25.626;2023-10-08T12:03:43;13.52;;;3.50;;
11604;SDS011;5858;43.076;25.626;2023-10-08T12:06:12;21.25;;;5.60;;
11604;SDS011;5858;43.076;25.626;2023-10-08T12:08:43;12.18;;;3.38;;
11604;SDS011;5858;43.076;25.626;2023-10-08T12:11:12;32.78;;;4.30;;
11604;SDS011;5858;43.076;25.626;2023-10-08T12:13:41;12.70;;;4.57;;
11604;SDS011;5858;43.076;25.626;2023-10-08T12:16:12;14.45;;;4.68;;
11604;SDS011;5858;43.076;25.626;2023-10-08T12:18:44;10.40;;;3.25;;
11604;SDS011;5858;43.076;25.626;2023-10-08T12:21:15;12.65;;;3.72;;
11604;SDS011;5858;43.076;25.626;2023-10-08T12:23:42;16.42;;;3.75;;
11604;SDS011;5858;43.076;25.626;2023-10-08T12:26:11;18.90;;;4.40;;
11604;SDS011;5858;43.076;25.626;2023-10-08T12:28:41;13.20;;;4.10;;
11604;SDS011;5858;43.076;25.626;2023-10-08T12:31:10;13.98;;;3.65;;
11604;SDS011;5858;43.076;25.626;2023-10-08T12:33:38;14.70;;;3.65;;
11604;SDS011;5858;43.076;25.626;2023-10-08T12:36:05;15.43;;;3.75;;
11604;SDS011;5858;43.076;25.626;2023-10-08T12:38:38;19.15;;;4.03;;
11604;SDS011;5858;43.076;25.626;2023-10-08T12:41:06;14.48;;;3.50;;
11604;SDS011;5858;43.076;25.626;2023-10-08T12:43:44;16.17;;;5.97;;
11604;SDS011;5858;43.076;25.626;2023-10-08T12:46:11;13.55;;;4.53;;
11604;SDS011;5858;43.076;25.626;2023-10-08T12:48:43;26.13;;;6.00;;
11604;SDS011;5858;43.076;25.626;2023-10-08T12:51:13;10.93;;;4.10;;
11604;SDS011;5858;43.076;25.626;2023-10-08T12:53:42;12.25;;;3.80;;
11604;SDS011;5858;43.076;25.626;2023-10-08T12:56:16;14.63;;;4.70;;
11604;SDS011;5858;43.076;25.626;2023-10-08T12:58:47;15.40;;;4.53;;
11604;SDS011;5858;43.076;25.626;2023-10-08T13:01:14;13.77;;;4.32;;
11604;SDS011;5858;43.076;25.626;2023-10-08T13:03:43;15.25;;;4.60;;
11604;SDS011;5858;43.076;25.626;2023-10-08T13:06:14;13.60;;;3.95;;
11604;SDS011;5858;43.076;25.626;2023-10-08T13:08:48;10.30;;;3.42;;
11604;SDS011;5858;43.076;25.626;2023-10-08T13:11:17;15.98;;;4.10;;
11604;SDS011;5858;43.076;25.626;2023-10-08T13:13:48;11.27;;;3.90;;
11604;SDS011;5858;43.076;25.626;2023-10-08T13:16:16;13.60;;;3.80;;
11604;SDS011;5858;43.076;25.626;2023-10-08T13:18:43;12.68;;;2.90;;
11604;SDS011;5858;43.076;25.626;2023-10-08T13:21:10;13.63;;;4.10;;
11604;SDS011;5858;43.076;25.626;2023-10-08T13:23:38;19.23;;;3.92;;
11604;SDS011;5858;43.076;25.626;2023-10-08T13:26:06;15.23;;;4.40;;
11604;SDS011;5858;43.076;25.626;2023-10-08T13:28:34;18.27;;;3.63;;
11604;SDS011;5858;43.076;25.626;2023-10-08T13:31:01;13.25;;;4.70;;
11604;SDS011;5858;43.076;25.626;2023-10-08T13:33:35;11.20;;;3.20;;
11604;SDS011;5858;43.076;25.626;2023-10-08T13:36:04;15.23;;;3.90;;
11604;SDS011;5858;43.076;25.626;2023-10-08T13:38:33;14.57;;;3.67;;
11604;SDS011;5858;43.076;25.626;2023-10-08T13:41:00;11.50;;;3.50;;
11604;SDS011;5858;43.076;25.626;2023-10-08T13:43:33;12.40;;;4.03;;
11604;SDS011;5858;43.076;25.626;2023-10-08T13:46:01;16.65;;;4.43;;
11604;SDS011;5858;43.076;25.626;2023-10-08T13:48:29;22.17;;;4.75;;
11604;SDS011;5858;43.076;25.626;2023-10-08T13:50:58;14.57;;;3.97;;
11604;SDS011;5858;43.076;25.626;2023-10-08T13:53:26;21.88;;;4.80;;
11604;SDS011;5858;43.076;25.626;2023-10-08T13:55:55;12.77;;;3.47;;
11604;SDS011;5858;43.076;25.626;2023-10-08T13:58:23;18.92;;;3.65;;
11604;SDS011;5858;43.076;25.626;2023-10-08T14:00:52;12.45;;;3.60;;
11604;SDS011;5858;43.076;25.626;2023-10-08T14:03:18;18.55;;;4.30;;
11604;SDS011;5858;43.076;25.626;2023-10-08T14:05:47;16.15;;;4.45;;
11604;SDS011;5858;43.076;25.626;2023-10-08T14:08:16;11.98;;;3.92;;
11604;SDS011;5858;43.076;25.626;2023-10-08T14:10:43;16.70;;;3.95;;
11604;SDS011;5858;43.076;25.626;2023-10-08T14:13:12;18.30;;;4.13;;
11604;SDS011;5858;43.076;25.626;2023-10-08T14:15:39;15.18;;;3.75;;
11604;SDS011;5858;43.076;25.626;2023-10-08T14:18:12;12.82;;;3.67;;
11604;SDS011;5858;43.076;25.626;2023-10-08T14:20:42;11.02;;;4.25;;
11604;SDS011;5858;43.076;25.626;2023-10-08T14:23:12;14.88;;;4.07;;
11604;SDS011;5858;43.076;25.626;2023-10-08T14:25:41;21.88;;;6.35;;
11604;SDS011;5858;43.076;25.626;2023-10-08T14:28:10;17.33;;;6.18;;
11604;SDS011;5858;43.076;25.626;2023-10-08T14:30:47;20.35;;;8.20;;
11604;SDS011;5858;43.076;25.626;2023-10-08T14:33:21;24.20;;;8.90;;
11604;SDS011;5858;43.076;25.626;2023-10-08T14:35:55;26.80;;;9.52;;
11604;SDS011;5858;43.076;25.626;2023-10-08T14:38:39;28.80;;;8.02;;
11604;SDS011;5858;43.076;25.626;2023-10-08T14:41:22;24.35;;;7.68;;
11604;SDS011;5858;43.076;25.626;2023-10-08T14:44:07;27.10;;;7.53;;
11604;SDS011;5858;43.076;25.626;2023-10-08T14:46:33;30.13;;;8.15;;
11604;SDS011;5858;43.076;25.626;2023-10-08T14:49:04;26.33;;;8.38;;
11604;SDS011;5858;43.076;25.626;2023-10-08T14:51:36;26.90;;;7.78;;
11604;SDS011;5858;43.076;25.626;2023-10-08T14:54:05;27.08;;;8.70;;
11604;SDS011;5858;43.076;25.626;2023-10-08T14:56:34;24.20;;;7.60;;
11604;SDS011;5858;43.076;25.626;2023-10-08T14:59:02;16.33;;;6.78;;
11604;SDS011;5858;43.076;25.626;2023-10-08T15:01:29;26.02;;;5.97;;
11604;SDS011;5858;43.076;25.626;2023-10-08T15:03:59;12.98;;;4.78;;
11604;SDS011;5858;43.076;25.626;2023-10-08T15:06:31;23.67;;;5.53;;
11604;SDS011;5858;43.076;25.626;2023-10-08T15:08:58;22.98;;;4.60;;
11604;SDS011;5858;43.076;25.626;2023-10-08T15:11:26;26.25;;;5.30;;
11604;SDS011;5858;43.076;25.626;2023-10-08T15:13:55;20.55;;;4.30;;